CheckWX is a tool to help pilots better visualize weather data.  It is not intended as a substitute for an official pre-flight weather briefing.

04:20:44 UTC

KLEW METAR
Auburn / Lewiston Municipal Airport
Auburn/Lewiston, Maine, USA
Current

25 mins ago

KLEW 270356Z AUTO 04003KT 10SM OVC009 18/16 A3010 RMK AO2 SLP206 T01780161 402390161
Observed
Jun-27 @ 03:56 UTC
Wind
  • 040° at 3 KTS
Visibility
10 SM
Flight Rules
IFR
Cloud Levels
  • Overcast at 900' AGL
Temperature
18°C / 64°F
Dewpoint
16°C / 61°F
Humidity
88%
Altimeter
30.1" Hg
Pressure
1019.32 hPa
Previous

39 mins ago

KLEW 270342Z AUTO 00000KT 10SM OVC009 18/17 A3010 RMK AO2
Observed
Jun-27 @ 03:42 UTC
Visibility
10 SM
Flight Rules
IFR
Cloud Levels
  • Overcast at 900' AGL
Temperature
18°C / 64°F
Dewpoint
17°C / 63°F
Humidity
94%
Altimeter
30.1" Hg
Pressure
1019.32 hPa
Previous

1 hour ago

KLEW 270256Z AUTO 06004KT 10SM OVC011 18/17 A3008 RMK AO2 SLP199 T01830167 51012
Observed
Jun-27 @ 02:56 UTC
Wind
  • 060° at 4 KTS
Visibility
10 SM
Flight Rules
MVFR
Cloud Levels
  • Overcast at 1,100' AGL
Temperature
18°C / 64°F
Dewpoint
17°C / 63°F
Humidity
94%
Altimeter
30.08" Hg
Pressure
1018.62 hPa